sensor_id;sensor_type;location;lat;lon;timestamp;pressure;altitude;pressure_sealevel;temperature;humidity
65553;BME280;52465;51.560;14.368;2023-04-05T00:01:31;101053.28;;;9.34;62.25
65553;BME280;52465;51.560;14.368;2023-04-05T00:03:58;101057.03;;;9.41;61.67
65553;BME280;52465;51.560;14.368;2023-04-05T00:06:25;101021.94;;;9.13;61.71
65553;BME280;52465;51.560;14.368;2023-04-05T00:08:56;101049.72;;;9.35;62.41
65553;BME280;52465;51.560;14.368;2023-04-05T00:11:26;101044.88;;;9.30;62.01
65553;BME280;52465;51.560;14.368;2023-04-05T00:13:55;101038.50;;;9.23;61.99
65553;BME280;52465;51.560;14.368;2023-04-05T00:16:22;101032.19;;;9.25;62.00
65553;BME280;52465;51.560;14.368;2023-04-05T00:18:47;101062.41;;;9.39;61.75
65553;BME280;52465;51.560;14.368;2023-04-05T00:21:17;101052.19;;;9.36;62.06
65553;BME280;52465;51.560;14.368;2023-04-05T00:23:46;101048.50;;;9.39;61.82
65553;BME280;52465;51.560;14.368;2023-04-05T00:26:13;101043.66;;;9.34;61.86
65553;BME280;52465;51.560;14.368;2023-04-05T00:28:38;101008.81;;;9.24;61.75
65553;BME280;52465;51.560;14.368;2023-04-05T00:31:07;101019.41;;;9.22;61.79
65553;BME280;52465;51.560;14.368;2023-04-05T00:36:14;101039.13;;;9.36;62.18
65553;BME280;52465;51.560;14.368;2023-04-05T00:38:42;101043.41;;;9.37;61.95
65553;BME280;52465;51.560;14.368;2023-04-05T00:41:10;101015.25;;;9.20;61.85
65553;BME280;52465;51.560;14.368;2023-04-05T00:43:37;101035.69;;;9.36;61.68
65553;BME280;52465;51.560;14.368;2023-04-05T00:46:06;101024.94;;;9.29;62.17
65553;BME280;52465;51.560;14.368;2023-04-05T00:48:33;101032.38;;;9.34;61.98
65553;BME280;52465;51.560;14.368;2023-04-05T00:51:01;101040.22;;;9.34;62.24
65553;BME280;52465;51.560;14.368;2023-04-05T00:53:27;101021.34;;;9.30;62.22
65553;BME280;52465;51.560;14.368;2023-04-05T00:55:53;101031.69;;;9.32;62.22
65553;BME280;52465;51.560;14.368;2023-04-05T00:58:20;101039.25;;;9.35;62.26
65553;BME280;52465;51.560;14.368;2023-04-05T01:00:54;101030.75;;;9.33;62.38
65553;BME280;52465;51.560;14.368;2023-04-05T01:03:50;101035.81;;;9.34;61.97
65553;BME280;52465;51.560;14.368;2023-04-05T01:15:25;100996.34;;;9.07;62.99
65553;BME280;52465;51.560;14.368;2023-04-05T01:17:53;101006.13;;;9.14;63.30
65553;BME280;52465;51.560;14.368;2023-04-05T01:20:24;101036.66;;;9.35;62.99
65553;BME280;52465;51.560;14.368;2023-04-05T01:23:10;101026.78;;;9.38;62.60
65553;BME280;52465;51.560;14.368;2023-04-05T01:26:03;101019.91;;;9.37;62.57
65553;BME280;52465;51.560;14.368;2023-04-05T01:29:16;101026.06;;;9.36;62.17
65553;BME280;52465;51.560;14.368;2023-04-05T01:31:48;101016.94;;;9.31;62.45
65553;BME280;52465;51.560;14.368;2023-04-05T01:37:06;101017.53;;;9.34;62.23
65553;BME280;52465;51.560;14.368;2023-04-05T01:39:34;101021.81;;;9.35;62.32
65553;BME280;52465;51.560;14.368;2023-04-05T01:42:01;101014.25;;;9.32;62.08
65553;BME280;52465;51.560;14.368;2023-04-05T01:52:37;100949.41;;;8.74;62.71
65553;BME280;52465;51.560;14.368;2023-04-05T01:55:02;101003.22;;;9.28;63.47
65553;BME280;52465;51.560;14.368;2023-04-05T01:57:28;100997.72;;;9.32;63.14
65553;BME280;52465;51.560;14.368;2023-04-05T01:59:54;101001.16;;;9.32;62.58
65553;BME280;52465;51.560;14.368;2023-04-05T02:02:21;101007.91;;;9.35;62.28
65553;BME280;52465;51.560;14.368;2023-04-05T02:04:47;100895.50;;;8.64;62.14
65553;BME280;52465;51.560;14.368;2023-04-05T02:16:41;100991.63;;;9.21;63.31
65553;BME280;52465;51.560;14.368;2023-04-05T02:19:07;100977.84;;;9.19;63.14
65553;BME280;52465;51.560;14.368;2023-04-05T02:21:32;100975.69;;;9.24;63.11
65553;BME280;52465;51.560;14.368;2023-04-05T02:23:59;100958.72;;;9.09;62.58
65553;BME280;52465;51.560;14.368;2023-04-05T02:26:25;100956.66;;;9.13;62.49
65553;BME280;52465;51.560;14.368;2023-04-05T02:28:51;100976.38;;;9.26;62.24
65553;BME280;52465;51.560;14.368;2023-04-05T02:31:16;100988.22;;;9.31;62.08
65553;BME280;52465;51.560;14.368;2023-04-05T02:33:42;100972.91;;;9.16;61.97
65553;BME280;52465;51.560;14.368;2023-04-05T02:36:08;100991.09;;;9.27;61.91
65553;BME280;52465;51.560;14.368;2023-04-05T02:38:34;100862.56;;;8.42;61.95
65553;BME280;52465;51.560;14.368;2023-04-05T02:41:02;100940.59;;;8.87;61.88
65553;BME280;52465;51.560;14.368;2023-04-05T02:43:27;100993.00;;;9.25;62.18
65553;BME280;52465;51.560;14.368;2023-04-05T02:45:54;100979.31;;;9.12;61.88
65553;BME280;52465;51.560;14.368;2023-04-05T02:48:23;100973.53;;;9.09;62.09
65553;BME280;52465;51.560;14.368;2023-04-05T02:50:50;100963.78;;;9.11;61.71
65553;BME280;52465;51.560;14.368;2023-04-05T02:53:16;100985.44;;;9.22;61.77
65553;BME280;52465;51.560;14.368;2023-04-05T02:55:50;100975.50;;;9.16;61.89
65553;BME280;52465;51.560;14.368;2023-04-05T03:01:10;100977.41;;;9.14;62.01
65553;BME280;52465;51.560;14.368;2023-04-05T03:03:36;100940.16;;;8.91;61.96
65553;BME280;52465;51.560;14.368;2023-04-05T03:06:05;100963.50;;;9.04;62.07
65553;BME280;52465;51.560;14.368;2023-04-05T03:08:38;100986.66;;;9.18;61.96
65553;BME280;52465;51.560;14.368;2023-04-05T03:11:08;100977.28;;;9.16;61.85
65553;BME280;52465;51.560;14.368;2023-04-05T03:13:35;100902.38;;;8.65;62.32
65553;BME280;52465;51.560;14.368;2023-04-05T03:18:49;100973.16;;;9.13;62.10
65553;BME280;52465;51.560;14.368;2023-04-05T03:21:15;100979.31;;;9.12;62.18
65553;BME280;52465;51.560;14.368;2023-04-05T03:23:42;100970.50;;;9.04;61.90
65553;BME280;52465;51.560;14.368;2023-04-05T03:26:11;100986.47;;;9.10;62.03
65553;BME280;52465;51.560;14.368;2023-04-05T03:28:38;100864.09;;;8.33;61.97
65553;BME280;52465;51.560;14.368;2023-04-05T03:31:11;100960.97;;;9.02;62.07
65553;BME280;52465;51.560;14.368;2023-04-05T03:33:39;100963.72;;;9.01;62.04
65553;BME280;52465;51.560;14.368;2023-04-05T03:36:06;100971.78;;;9.09;61.59
65553;BME280;52465;51.560;14.368;2023-04-05T03:38:32;100971.19;;;9.06;62.45
65553;BME280;52465;51.560;14.368;2023-04-05T03:40:58;100971.88;;;9.08;62.08
65553;BME280;52465;51.560;14.368;2023-04-05T03:43:23;100970.50;;;9.04;62.32
65553;BME280;52465;51.560;14.368;2023-04-05T03:45:52;100951.88;;;8.97;62.27
65553;BME280;52465;51.560;14.368;2023-04-05T03:48:18;100837.03;;;8.13;62.08
65553;BME280;52465;51.560;14.368;2023-04-05T03:50:46;100961.41;;;8.98;62.08
65553;BME280;52465;51.560;14.368;2023-04-05T03:53:36;100970.50;;;9.04;62.42
65553;BME280;52465;51.560;14.368;2023-04-05T03:56:02;100897.56;;;8.60;61.90
65553;BME280;52465;51.560;14.368;2023-04-05T03:58:28;100904.41;;;8.61;62.27
65553;BME280;52465;51.560;14.368;2023-04-05T04:00:53;100939.19;;;8.83;61.75
65553;BME280;52465;51.560;14.368;2023-04-05T04:03:20;100967.31;;;9.00;62.31
65553;BME280;52465;51.560;14.368;2023-04-05T04:05:46;100857.16;;;8.22;62.18
65553;BME280;52465;51.560;14.368;2023-04-05T04:08:12;100967.16;;;9.01;62.09
65553;BME280;52465;51.560;14.368;2023-04-05T04:10:37;100969.91;;;9.00;62.02
65553;BME280;52465;51.560;14.368;2023-04-05T04:13:03;100969.09;;;8.99;62.34
65553;BME280;52465;51.560;14.368;2023-04-05T04:15:28;100969.47;;;8.95;62.42
65553;BME280;52465;51.560;14.368;2023-04-05T04:17:55;100975.97;;;9.00;62.08
65553;BME280;52465;51.560;14.368;2023-04-05T04:20:20;100913.91;;;8.62;62.61
65553;BME280;52465;51.560;14.368;2023-04-05T04:22:46;100970.56;;;8.92;62.07
65553;BME280;52465;51.560;14.368;2023-04-05T04:25:17;100961.88;;;8.92;62.35
65553;BME280;52465;51.560;14.368;2023-04-05T04:27:43;100978.81;;;8.97;62.25
65553;BME280;52465;51.560;14.368;2023-04-05T04:40:53;100967.50;;;8.87;63.97
65553;BME280;52465;51.560;14.368;2023-04-05T04:43:27;100959.53;;;8.89;63.32
65553;BME280;52465;51.560;14.368;2023-04-05T04:45:58;100971.84;;;8.98;62.86
65553;BME280;52465;51.560;14.368;2023-04-05T04:48:24;100971.31;;;9.04;63.23
65553;BME280;52465;51.560;14.368;2023-04-05T04:50:51;100952.41;;;8.91;62.67
65553;BME280;52465;51.560;14.368;2023-04-05T04:53:16;100959.47;;;9.00;62.55
65553;BME280;52465;51.560;14.368;2023-04-05T04:55:43;100963.16;;;8.97;63.06
65553;BME280;52465;51.560;14.368;2023-04-05T04:58:09;100949.16;;;8.78;62.74
65553;BME280;52465;51.560;14.368;2023-04-05T05:00:39;100972.78;;;8.97;62.72
65553;BME280;52465;51.560;14.368;2023-04-05T05:03:07;100973.50;;;8.99;62.85
65553;BME280;52465;51.560;14.368;2023-04-05T05:05:35;100974.69;;;8.95;62.48
65553;BME280;52465;51.560;14.368;2023-04-05T05:08:01;100955.09;;;8.80;62.53
65553;BME280;52465;51.560;14.368;2023-04-05T05:10:26;100982.53;;;8.95;62.29
65553;BME280;52465;51.560;14.368;2023-04-05T05:12:57;100955.91;;;8.80;62.32
65553;BME280;52465;51.560;14.368;2023-04-05T05:15:22;100979.22;;;8.93;62.58
65553;BME280;52465;51.560;14.368;2023-04-05T05:28:11;100980.69;;;8.86;63.80
65553;BME280;52465;51.560;14.368;2023-04-05T05:30:37;100963.63;;;8.82;63.28
65553;BME280;52465;51.560;14.368;2023-04-05T05:33:03;100973.28;;;8.91;63.44
65553;BME280;52465;51.560;14.368;2023-04-05T05:35:28;100974.13;;;8.91;63.30
65553;BME280;52465;51.560;14.368;2023-04-05T05:37:54;100990.22;;;8.96;62.46
65553;BME280;52465;51.560;14.368;2023-04-05T05:40:20;100913.13;;;8.51;62.69
65553;BME280;52465;51.560;14.368;2023-04-05T05:42:48;100981.56;;;8.96;62.20
65553;BME280;52465;51.560;14.368;2023-04-05T05:45:14;100974.38;;;8.88;62.64
65553;BME280;52465;51.560;14.368;2023-04-05T05:47:42;100934.41;;;8.67;62.11
65553;BME280;52465;51.560;14.368;2023-04-05T05:50:08;100961.41;;;8.77;61.97
65553;BME280;52465;51.560;14.368;2023-04-05T05:52:34;100967.75;;;8.84;62.22
65553;BME280;52465;51.560;14.368;2023-04-05T05:55:05;100937.38;;;8.62;62.10
65553;BME280;52465;51.560;14.368;2023-04-05T05:57:31;100962.69;;;8.83;62.34
65553;BME280;52465;51.560;14.368;2023-04-05T05:59:57;100975.22;;;8.89;62.04
65553;BME280;52465;51.560;14.368;2023-04-05T06:02:23;100946.25;;;8.71;61.85
65553;BME280;52465;51.560;14.368;2023-04-05T06:04:49;100948.97;;;8.69;62.21
65553;BME280;52465;51.560;14.368;2023-04-05T06:07:15;100975.59;;;8.84;62.32
65553;BME280;52465;51.560;14.368;2023-04-05T06:09:40;100957.53;;;8.71;62.22
65553;BME280;52465;51.560;14.368;2023-04-05T06:12:06;100964.47;;;8.82;62.47
65553;BME280;52465;51.560;14.368;2023-04-05T06:14:31;100960.56;;;8.77;62.00
65553;BME280;52465;51.560;14.368;2023-04-05T06:16:57;100944.00;;;8.66;62.10
65553;BME280;52465;51.560;14.368;2023-04-05T06:20:08;100959.84;;;8.74;62.05
65553;BME280;52465;51.560;14.368;2023-04-05T06:22:36;100932.44;;;8.59;62.29
65553;BME280;52465;51.560;14.368;2023-04-05T06:25:02;100946.50;;;8.68;62.30
65553;BME280;52465;51.560;14.368;2023-04-05T06:27:27;100959.75;;;8.76;61.98
65553;BME280;52465;51.560;14.368;2023-04-05T06:29:53;100969.78;;;8.81;62.56
65553;BME280;52465;51.560;14.368;2023-04-05T06:32:19;100938.59;;;8.58;62.53
65553;BME280;52465;51.560;14.368;2023-04-05T06:34:45;100930.91;;;8.57;62.17
65553;BME280;52465;51.560;14.368;2023-04-05T06:37:13;100970.75;;;8.80;62.08
65553;BME280;52465;51.560;14.368;2023-04-05T06:39:38;100965.78;;;8.77;62.20
65553;BME280;52465;51.560;14.368;2023-04-05T06:42:04;100928.78;;;8.51;62.10
65553;BME280;52465;51.560;14.368;2023-04-05T06:54:18;100970.44;;;8.73;63.91
65553;BME280;52465;51.560;14.368;2023-04-05T06:56:45;100959.84;;;8.74;63.62
65553;BME280;52465;51.560;14.368;2023-04-05T06:59:11;100964.91;;;8.87;62.47
65553;BME280;52465;51.560;14.368;2023-04-05T07:01:36;100962.53;;;8.84;62.92
65553;BME280;52465;51.560;14.368;2023-04-05T07:04:05;100961.19;;;8.90;62.63
65553;BME280;52465;51.560;14.368;2023-04-05T07:06:39;100950.44;;;8.83;62.48
65553;BME280;52465;51.560;14.368;2023-04-05T07:09:05;100936.63;;;8.71;63.00
65553;BME280;52465;51.560;14.368;2023-04-05T07:11:34;100941.06;;;8.81;62.65
65553;BME280;52465;51.560;14.368;2023-04-05T07:13:59;100960.63;;;8.86;62.31
65553;BME280;52465;51.560;14.368;2023-04-05T07:16:25;100948.41;;;8.87;62.51
65553;BME280;52465;51.560;14.368;2023-04-05T07:18:51;100927.97;;;8.71;62.12
65553;BME280;52465;51.560;14.368;2023-04-05T07:21:17;100937.19;;;8.75;62.56
65553;BME280;52465;51.560;14.368;2023-04-05T07:23:42;100951.94;;;8.86;62.61
65553;BME280;52465;51.560;14.368;2023-04-05T07:26:08;100909.31;;;8.55;61.88
65553;BME280;52465;51.560;14.368;2023-04-05T07:38:26;100932.44;;;8.59;63.06
65553;BME280;52465;51.560;14.368;2023-04-05T07:40:53;100957.69;;;8.80;63.53
65553;BME280;52465;51.560;14.368;2023-04-05T07:43:18;100962.16;;;8.89;62.78
65553;BME280;52465;51.560;14.368;2023-04-05T07:45:44;100938.34;;;8.82;62.44
65553;BME280;52465;51.560;14.368;2023-04-05T07:48:10;100958.72;;;8.88;62.13
65553;BME280;52465;51.560;14.368;2023-04-05T07:50:36;100949.94;;;8.89;62.36
65553;BME280;52465;51.560;14.368;2023-04-05T07:53:04;100961.88;;;8.92;62.29
65553;BME280;52465;51.560;14.368;2023-04-05T07:55:30;100939.09;;;8.73;62.06
65553;BME280;52465;51.560;14.368;2023-04-05T07:57:56;100924.78;;;8.67;62.08
65553;BME280;52465;51.560;14.368;2023-04-05T08:00:22;100948.22;;;8.79;62.08
65553;BME280;52465;51.560;14.368;2023-04-05T08:12:36;100959.34;;;8.81;63.50
65553;BME280;52465;51.560;14.368;2023-04-05T08:15:02;100944.13;;;8.86;63.17
65553;BME280;52465;51.560;14.368;2023-04-05T08:17:28;100937.84;;;8.88;62.55
65553;BME280;52465;51.560;14.368;2023-04-05T08:19:56;100946.22;;;8.92;62.74
65553;BME280;52465;51.560;14.368;2023-04-05T08:22:27;100947.91;;;8.93;62.43
65553;BME280;52465;51.560;14.368;2023-04-05T08:24:56;100945.28;;;8.93;62.47
65553;BME280;52465;51.560;14.368;2023-04-05T08:27:22;100951.34;;;8.93;62.32
65553;BME280;52465;51.560;14.368;2023-04-05T08:29:47;100946.94;;;8.94;61.92
65553;BME280;52465;51.560;14.368;2023-04-05T08:32:13;100916.44;;;8.73;61.93
65553;BME280;52465;51.560;14.368;2023-04-05T08:34:38;100952.28;;;8.92;61.93
65553;BME280;52465;51.560;14.368;2023-04-05T08:37:04;100927.09;;;8.82;62.11
65553;BME280;52465;51.560;14.368;2023-04-05T08:39:30;100941.28;;;8.89;62.11
65553;BME280;52465;51.560;14.368;2023-04-05T08:44:30;100931.06;;;8.86;62.05
65553;BME280;52465;51.560;14.368;2023-04-05T08:46:58;100934.41;;;8.88;62.10
65553;BME280;52465;51.560;14.368;2023-04-05T08:49:25;100912.03;;;8.74;61.62
65553;BME280;52465;51.560;14.368;2023-04-05T08:51:50;100933.44;;;8.89;62.36
65553;BME280;52465;51.560;14.368;2023-04-05T08:54:17;100896.44;;;8.63;61.95
65553;BME280;52465;51.560;14.368;2023-04-05T08:56:52;100916.88;;;8.79;61.48
65553;BME280;52465;51.560;14.368;2023-04-05T08:59:23;100935.34;;;8.87;61.98
65553;BME280;52465;51.560;14.368;2023-04-05T09:01:50;100942.91;;;8.90;61.83
65553;BME280;52465;51.560;14.368;2023-04-05T09:04:22;100941.41;;;8.87;62.14
65553;BME280;52465;51.560;14.368;2023-04-05T09:06:50;100933.22;;;8.81;61.64
65553;BME280;52465;51.560;14.368;2023-04-05T09:09:17;100934.78;;;8.83;61.83
65553;BME280;52465;51.560;14.368;2023-04-05T09:20:24;100927.00;;;8.93;59.52
65553;BME280;52465;51.560;14.368;2023-04-05T09:22:50;100870.16;;;8.76;59.29
65553;BME280;52465;51.560;14.368;2023-04-05T09:27:57;100919.03;;;9.25;59.05
65553;BME280;52465;51.560;14.368;2023-04-05T09:30:26;100927.63;;;9.46;59.20
65553;BME280;52465;51.560;14.368;2023-04-05T09:32:55;100916.50;;;9.44;59.10
65553;BME280;52465;51.560;14.368;2023-04-05T09:35:25;100918.31;;;9.63;59.10
65553;BME280;52465;51.560;14.368;2023-04-05T09:40:22;100900.03;;;9.63;58.41
65553;BME280;52465;51.560;14.368;2023-04-05T09:42:48;100926.06;;;9.84;58.22
65553;BME280;52465;51.560;14.368;2023-04-05T09:45:15;100935.16;;;9.90;58.38
65553;BME280;52465;51.560;14.368;2023-04-05T09:50:21;100913.03;;;9.94;58.35
65553;BME280;52465;51.560;14.368;2023-04-05T09:52:46;100898.56;;;9.90;58.37
65553;BME280;52465;51.560;14.368;2023-04-05T09:55:13;100925.69;;;10.08;58.63
65553;BME280;52465;51.560;14.368;2023-04-05T09:58:17;100918.41;;;10.12;58.58
65553;BME280;52465;51.560;14.368;2023-04-05T10:00:50;100920.88;;;10.13;58.32
65553;BME280;52465;51.560;14.368;2023-04-05T10:03:19;100894.97;;;10.00;58.35
65553;BME280;52465;51.560;14.368;2023-04-05T10:05:45;100911.63;;;10.19;58.57
65553;BME280;52465;51.560;14.368;2023-04-05T10:08:13;100912.47;;;10.19;58.37
65553;BME280;52465;51.560;14.368;2023-04-05T10:10:45;100907.78;;;10.23;58.49
65553;BME280;52465;51.560;14.368;2023-04-05T10:13:13;100899.00;;;10.24;58.92
65553;BME280;52465;51.560;14.368;2023-04-05T10:15:40;100895.13;;;10.18;58.51
65553;BME280;52465;51.560;14.368;2023-04-05T10:18:17;100911.69;;;10.28;58.71
65553;BME280;52465;51.560;14.368;2023-04-05T10:20:48;100895.16;;;10.28;58.40
65553;BME280;52465;51.560;14.368;2023-04-05T10:23:30;100901.06;;;10.30;58.32
65553;BME280;52465;51.560;14.368;2023-04-05T10:26:03;100893.75;;;10.24;58.39
65553;BME280;52465;51.560;14.368;2023-04-05T10:28:33;100904.25;;;10.33;58.61
65553;BME280;52465;51.560;14.368;2023-04-05T10:33:50;100904.09;;;10.35;58.59
65553;BME280;52465;51.560;14.368;2023-04-05T10:36:53;100903.94;;;10.37;58.87
65553;BME280;52465;51.560;14.368;2023-04-05T10:39:27;100906.56;;;10.37;58.85
65553;BME280;52465;51.560;14.368;2023-04-05T10:41:59;100899.41;;;10.39;58.63
65553;BME280;52465;51.560;14.368;2023-04-05T10:44:28;100899.41;;;10.39;58.70
65553;BME280;52465;51.560;14.368;2023-04-05T10:46:55;100869.41;;;10.23;58.52
65553;BME280;52465;51.560;14.368;2023-04-05T10:49:28;100899.41;;;10.39;58.81
65553;BME280;52465;51.560;14.368;2023-04-05T10:51:54;100903.81;;;10.38;58.80
65553;BME280;52465;51.560;14.368;2023-04-05T10:54:23;100892.81;;;10.35;58.75
65553;BME280;52465;51.560;14.368;2023-04-05T10:56:49;100859.72;;;10.14;58.80
65553;BME280;52465;51.560;14.368;2023-04-05T10:59:15;100880.53;;;10.25;58.86
65553;BME280;52465;51.560;14.368;2023-04-05T11:01:42;100891.00;;;10.35;58.74
65553;BME280;52465;51.560;14.368;2023-04-05T11:04:11;100899.41;;;10.39;58.71
65553;BME280;52465;51.560;14.368;2023-04-05T11:06:37;100877.91;;;10.35;59.02
65553;BME280;52465;51.560;14.368;2023-04-05T11:09:18;100891.97;;;10.34;58.75
65553;BME280;52465;51.560;14.368;2023-04-05T11:11:47;100878.34;;;10.30;59.05
65553;BME280;52465;51.560;14.368;2023-04-05T11:14:18;100858.75;;;10.15;59.05
65553;BME280;52465;51.560;14.368;2023-04-05T11:16:46;100871.19;;;10.32;58.88
65553;BME280;52465;51.560;14.368;2023-04-05T11:19:15;100858.63;;;10.26;59.08
65553;BME280;52465;51.560;14.368;2023-04-05T11:21:40;100886.59;;;10.36;59.05
65553;BME280;52465;51.560;14.368;2023-04-05T11:24:09;100891.41;;;10.40;58.85
65553;BME280;52465;51.560;14.368;2023-04-05T11:29:14;100858.78;;;10.25;59.19
65553;BME280;52465;51.560;14.368;2023-04-05T11:32:00;100875.72;;;10.30;59.31
65553;BME280;52465;51.560;14.368;2023-04-05T11:34:34;100881.34;;;10.36;59.13
65553;BME280;52465;51.560;14.368;2023-04-05T11:37:00;100886.19;;;10.40;59.00
65553;BME280;52465;51.560;14.368;2023-04-05T11:39:26;100880.13;;;10.40;58.92
65553;BME280;52465;51.560;14.368;2023-04-05T11:44:18;100862.47;;;10.22;59.23
65553;BME280;52465;51.560;14.368;2023-04-05T11:46:46;100900.25;;;10.39;59.07
65553;BME280;52465;51.560;14.368;2023-04-05T11:49:12;100883.03;;;10.27;59.23
65553;BME280;52465;51.560;14.368;2023-04-05T11:51:42;100891.81;;;10.36;59.19
65553;BME280;52465;51.560;14.368;2023-04-05T11:54:08;100896.91;;;10.37;59.31
65553;BME280;52465;51.560;14.368;2023-04-05T11:58:57;100897.75;;;10.38;59.58
65553;BME280;52465;51.560;14.368;2023-04-05T12:01:23;100881.91;;;10.29;59.31
65553;BME280;52465;51.560;14.368;2023-04-05T12:03:52;100887.16;;;10.29;59.47
65553;BME280;52465;51.560;14.368;2023-04-05T12:06:21;100889.50;;;10.32;59.42
65553;BME280;52465;51.560;14.368;2023-04-05T12:08:49;100872.00;;;10.23;59.13
65553;BME280;52465;51.560;14.368;2023-04-05T12:11:26;100887.56;;;10.35;59.46
65553;BME280;52465;51.560;14.368;2023-04-05T12:13:58;100885.09;;;10.33;59.30
65553;BME280;52465;51.560;14.368;2023-04-05T12:16:24;100882.59;;;10.31;59.21
65553;BME280;52465;51.560;14.368;2023-04-05T12:18:56;100881.78;;;10.31;59.42
65553;BME280;52465;51.560;14.368;2023-04-05T12:21:22;100872.94;;;10.22;59.59
65553;BME280;52465;51.560;14.368;2023-04-05T12:23:51;100882.59;;;10.31;59.54
65553;BME280;52465;51.560;14.368;2023-04-05T12:26:17;100869.25;;;10.25;59.50
65553;BME280;52465;51.560;14.368;2023-04-05T12:28:53;100873.09;;;10.30;59.69
65553;BME280;52465;51.560;14.368;2023-04-05T12:31:39;100865.41;;;10.29;59.33
65553;BME280;52465;51.560;14.368;2023-04-05T12:34:05;100868.16;;;10.27;59.37
65553;BME280;52465;51.560;14.368;2023-04-05T12:36:31;100859.19;;;10.30;59.81
65553;BME280;52465;51.560;14.368;2023-04-05T12:38:56;100859.88;;;10.32;59.51
65553;BME280;52465;51.560;14.368;2023-04-05T12:41:29;100850.25;;;10.32;59.78
65553;BME280;52465;51.560;14.368;2023-04-05T12:43:55;100847.47;;;10.34;59.23
65553;BME280;52465;51.560;14.368;2023-04-05T12:46:39;100846.78;;;10.32;59.27
65553;BME280;52465;51.560;14.368;2023-04-05T12:49:05;100850.09;;;10.34;59.76
65553;BME280;52465;51.560;14.368;2023-04-05T12:51:31;100817.84;;;10.14;59.61
65553;BME280;52465;51.560;14.368;2023-04-05T12:53:57;100824.22;;;10.12;59.49
65553;BME280;52465;51.560;14.368;2023-04-05T12:56:22;100850.25;;;10.32;59.64
65553;BME280;52465;51.560;14.368;2023-04-05T12:58:48;100815.28;;;10.04;59.40
65553;BME280;52465;51.560;14.368;2023-04-05T13:01:15;100839.38;;;10.27;59.89
65553;BME280;52465;51.560;14.368;2023-04-05T13:03:44;100860.00;;;10.30;59.89
65553;BME280;52465;51.560;14.368;2023-04-05T13:06:10;100837.69;;;10.26;59.89
65553;BME280;52465;51.560;14.368;2023-04-05T13:08:35;100837.56;;;10.18;59.51
65553;BME280;52465;51.560;14.368;2023-04-05T13:11:01;100812.78;;;10.03;59.71
65553;BME280;52465;51.560;14.368;2023-04-05T13:13:27;100855.19;;;10.26;59.93
65553;BME280;52465;51.560;14.368;2023-04-05T13:15:55;100841.81;;;10.19;59.43
65553;BME280;52465;51.560;14.368;2023-04-05T13:18:20;100824.88;;;10.04;59.61
65553;BME280;52465;51.560;14.368;2023-04-05T13:20:46;100803.16;;;9.94;59.73
65553;BME280;52465;51.560;14.368;2023-04-05T13:23:12;100845.84;;;10.23;59.64
65553;BME280;52465;51.560;14.368;2023-04-05T13:25:42;100843.06;;;10.25;60.05
65553;BME280;52465;51.560;14.368;2023-04-05T13:28:09;100849.41;;;10.22;59.81
65553;BME280;52465;51.560;14.368;2023-04-05T13:30:35;100817.19;;;10.02;59.66
65553;BME280;52465;51.560;14.368;2023-04-05T13:33:00;100840.03;;;10.20;59.78
65553;BME280;52465;51.560;14.368;2023-04-05T13:35:28;100791.44;;;9.98;60.02
65553;BME280;52465;51.560;14.368;2023-04-05T13:37:54;100809.34;;;10.02;59.66
65553;BME280;52465;51.560;14.368;2023-04-05T13:40:19;100809.50;;;10.01;59.96
65553;BME280;52465;51.560;14.368;2023-04-05T13:42:45;100832.75;;;10.23;59.64
65553;BME280;52465;51.560;14.368;2023-04-05T13:45:10;100813.34;;;10.06;59.62
65553;BME280;52465;51.560;14.368;2023-04-05T13:47:36;100821.84;;;10.18;59.84
65553;BME280;52465;51.560;14.368;2023-04-05T13:50:02;100792.16;;;10.00;59.82
65553;BME280;52465;51.560;14.368;2023-04-05T13:52:28;100825.84;;;10.22;59.96
65553;BME280;52465;51.560;14.368;2023-04-05T13:54:54;100825.84;;;10.22;60.03
65553;BME280;52465;51.560;14.368;2023-04-05T13:57:20;100813.84;;;10.20;60.06
65553;BME280;52465;51.560;14.368;2023-04-05T13:59:45;100818.97;;;10.21;59.84
65553;BME280;52465;51.560;14.368;2023-04-05T14:02:13;100800.94;;;10.08;59.99
65553;BME280;52465;51.560;14.368;2023-04-05T14:04:40;100814.28;;;10.15;60.06
65553;BME280;52465;51.560;14.368;2023-04-05T14:07:06;100827.75;;;10.20;59.98
65553;BME280;52465;51.560;14.368;2023-04-05T14:09:34;100823.50;;;10.19;60.25
65553;BME280;52465;51.560;14.368;2023-04-05T14:12:11;100821.03;;;10.18;60.29
65553;BME280;52465;51.560;14.368;2023-04-05T14:14:37;100799.03;;;10.01;60.29
65553;BME280;52465;51.560;14.368;2023-04-05T14:17:03;100797.38;;;10.00;60.28
65553;BME280;52465;51.560;14.368;2023-04-05T14:19:29;100818.00;;;10.13;59.92
65553;BME280;52465;51.560;14.368;2023-04-05T14:21:54;100790.09;;;9.94;60.44
65553;BME280;52465;51.560;14.368;2023-04-05T14:24:20;100815.78;;;10.18;60.15
65553;BME280;52465;51.560;14.368;2023-04-05T14:27:04;100821.28;;;10.15;60.12
65553;BME280;52465;51.560;14.368;2023-04-05T14:29:30;100817.59;;;10.17;60.33
65553;BME280;52465;51.560;14.368;2023-04-05T14:31:55;100820.34;;;10.16;60.36
65553;BME280;52465;51.560;14.368;2023-04-05T14:34:21;100820.34;;;10.16;60.28
65553;BME280;52465;51.560;14.368;2023-04-05T14:36:46;100823.38;;;10.11;60.18
65553;BME280;52465;51.560;14.368;2023-04-05T14:41:51;100820.47;;;10.14;60.46
65553;BME280;52465;51.560;14.368;2023-04-05T14:44:18;100810.56;;;10.08;60.59
65553;BME280;52465;51.560;14.368;2023-04-05T14:46:44;100798.63;;;9.96;60.41
65553;BME280;52465;51.560;14.368;2023-04-05T14:49:09;100831.09;;;10.13;60.33
65553;BME280;52465;51.560;14.368;2023-04-05T14:51:35;100821.59;;;10.12;60.42